الصفحة الرئيسية
METAR-TAF:

METAR-TAF

مطار :

Japanese Ground Self Defense Force

Tokachi-Obihiro, اليابان

دائرة عرض: 42-54N, خط طول: 143-10E, ارتفاع: 84 متر

مراقبة الطقس الحالي

تاريخ ووقت الإصدار 7ساعات و 48 دقيقة قبل الساعة 06:18UTC
ريح 3 عقدة من الجنوب/الجنوب الغربي
درجة الحرارة 15°درجة مئوية
الرطوبة 94%
ضغط 1005 hPa
الرؤية: 4000 متر
غيوم قليلة على ارتفاع 400 قدم
غيوم مفككة على ارتفاع 800 قدم
غيوم مفككة على ارتفاع 1500 قدم
زخات من الأمطار الخفيفة, غشاء

METAR: RJCT 240618Z 21003KT 4000 -SHRA BR FEW004 BKN008 BKN015 15/14 Q1005 RMK 2ST004 5ST008 7CU015 A2970

زمن: 23:06 (14:06 UTC)


TAF: مفقودة

أرصاد الطقس والتوقعات من أكثر من 4000 مطار (تقارير الطقس للمطار METAR والتنبؤ بالطقس بالمطارTAF).

المحطات المتاحة هي النقط الصفراء والحمراء على الخريطة.

حرك المؤشر فوق النقطة لمعرفة اسم المحطة.

ثم انقر لمعرفة أرصاد وتوقعات الطقس.

لتغيير الخارطة: اضغط على الأزرار الخضراء مع رمز الصليب الأسود للتكبير. على الزر الأخضر مع شرطة للتصغير، أو على الأسهم الخضراء للخرائط المجاورة.


METAR-TAF: